Sant Sadurni d'Anoia, Spain
Current Conditions -  °F | °C
As of 2:00 PM on Thursday 23 Oct 2014 (Local Time) from LEBL Reporting Station
Clear Clear  
Wind Chill: 70°   Ceiling: Unl
Heat Index: 70°   Visibility: 6mi
Dew Point: 50°   Wind: 9mph
Humidity: 49%   Direction: 200°SSW
Pressure: 30.06"   Gusts: NA
Location:  41.42°N, 1.78°E
Report Text: LEBL 231200Z 20008KT 170V230 CAVOK 21/10 Q1018 NOSIG
Loading
Personal Weather Stations






























Interactive Weather Map
Tropical Storm Tracking
New forecast layout! Learn more

10-Day Weather Forecast

Advertisements
Track Severe Weather on mobile